Time;durP1;ratioP1;P1;durP2;ratioP2;P2;SDS_P1;SDS_P2;PMS_P1;PMS_P2;Temp;Humidity;BMP_temperature;BMP_pressure;BME280_temperature;BME280_humidity;BME280_pressure;Samples;Min_cycle;Max_cycle;Signal;HPM_P1;HPM_P2
2022/08/04 00:00:03;;;;;;;4.15;1.58;;;20.90;99.90;;;;;;5040316;28;20025;-88
2022/08/04 00:02:42;;;;;;;5.43;1.45;;;20.80;99.90;;;;;;5057168;28;20037;-88
2022/08/04 00:05:30;;;;;;;6.00;1.83;;;20.80;99.90;;;;;;5054404;28;20057;-88
2022/08/04 00:08:26;;;;;;;8.10;1.38;;;20.70;99.90;;;;;;5056366;28;20032;-89
2022/08/04 00:10:58;;;;;;;7.75;1.75;;;20.70;99.90;;;;;;5045182;28;20132;-87
2022/08/04 00:13:26;;;;;;;5.25;1.75;;;20.60;99.90;;;;;;5045899;28;20037;-88
2022/08/04 00:15:56;;;;;;;3.70;1.38;;;20.60;99.90;;;;;;5040924;28;20033;-88
2022/08/04 00:18:44;;;;;;;5.85;1.90;;;20.60;99.90;;;;;;5057174;28;20021;-88
2022/08/04 00:21:14;;;;;;;9.10;1.77;;;20.60;99.90;;;;;;5049748;28;20033;-88
2022/08/04 00:23:42;;;;;;;4.72;1.40;;;20.60;99.90;;;;;;5052710;28;20033;-88
2022/08/04 00:26:08;;;;;;;5.47;1.55;;;20.50;99.90;;;;;;5053460;28;20115;-88
2022/08/04 00:28:37;;;;;;;7.53;1.38;;;20.50;99.90;;;;;;5054077;28;20022;-87
2022/08/04 00:31:04;;;;;;;4.45;1.48;;;20.50;99.90;;;;;;5050156;28;20397;-88
2022/08/04 00:33:31;;;;;;;6.15;1.55;;;20.50;99.90;;;;;;5046294;28;20127;-87
2022/08/04 00:35:58;;;;;;;4.55;1.60;;;20.50;99.90;;;;;;5043242;28;20481;-87
2022/08/04 00:38:25;;;;;;;5.13;1.20;;;20.50;99.90;;;;;;5048149;28;20017;-88
2022/08/04 00:40:50;;;;;;;3.50;1.20;;;20.50;99.90;;;;;;5060095;28;20404;-88
2022/08/04 00:43:51;;;;;;;4.63;1.42;;;20.50;99.90;;;;;;5047078;28;20049;-88
2022/08/04 00:46:45;;;;;;;2.67;1.20;;;20.50;99.90;;;;;;5051679;28;20045;-89
2022/08/04 00:49:37;;;;;;;11.82;1.88;;;20.50;99.90;;;;;;5017605;28;20060;-88
2022/08/04 00:52:21;;;;;;;3.92;1.10;;;20.50;99.90;;;;;;5055251;28;20040;-88
2022/08/04 00:55:15;;;;;;;6.82;1.27;;;20.40;99.90;;;;;;5054712;28;20040;-88
2022/08/04 00:58:02;;;;;;;3.47;1.52;;;20.50;99.90;;;;;;5055655;28;20067;-88
2022/08/04 01:00:35;;;;;;;5.13;1.10;;;20.50;99.90;;;;;;5052033;28;20067;-89
2022/08/04 01:03:22;;;;;;;3.75;1.13;;;20.50;99.90;;;;;;5047818;28;20317;-87
2022/08/04 01:06:08;;;;;;;5.35;1.55;;;20.50;99.90;;;;;;5048152;28;20508;-88
2022/08/04 01:08:54;;;;;;;6.30;1.60;;;20.50;99.90;;;;;;5054693;28;20021;-88
2022/08/04 01:11:56;;;;;;;4.38;1.50;;;20.60;99.90;;;;;;5056457;28;20037;-88
2022/08/04 01:14:28;;;;;;;;;;;20.60;99.90;;;;;;5056534;28;20512;-89
2022/08/04 01:17:06;;;;;;;3.90;1.52;;;20.60;99.90;;;;;;5046819;28;19920;-88
2022/08/04 01:19:52;;;;;;;6.43;1.70;;;20.60;99.90;;;;;;5048824;28;20036;-89
2022/08/04 01:22:30;;;;;;;6.03;1.30;;;20.70;99.90;;;;;;5043060;28;20128;-89
2022/08/04 01:25:33;;;;;;;3.92;1.45;;;20.90;99.90;;;;;;5045329;28;20025;-89
2022/08/04 01:28:29;;;;;;;3.88;1.38;;;21.00;99.90;;;;;;5056647;28;20027;-89
2022/08/04 01:31:20;;;;;;;4.78;1.45;;;21.10;99.90;;;;;;5055301;28;20021;-89
2022/08/04 01:33:49;;;;;;;4.60;1.95;;;21.10;99.90;;;;;;5051731;28;20028;-90
2022/08/04 01:36:16;;;;;;;5.03;1.27;;;21.20;99.90;;;;;;5055193;28;20065;-89
2022/08/04 01:38:42;;;;;;;3.58;1.48;;;21.30;99.90;;;;;;5045920;28;20070;-90
2022/08/04 01:41:12;;;;;;;2.80;1.30;;;21.30;99.90;;;;;;5050905;28;20063;-89
2022/08/04 01:43:42;;;;;;;4.75;1.33;;;21.30;99.90;;;;;;5055935;28;20037;-89
2022/08/04 01:46:13;;;;;;;4.35;1.17;;;21.30;99.90;;;;;;5054169;28;20084;-89
2022/08/04 01:48:41;;;;;;;5.57;1.27;;;21.40;99.90;;;;;;5042856;28;20141;-90
2022/08/04 01:51:08;;;;;;;6.13;1.30;;;21.40;99.90;;;;;;5050233;28;20052;-90
2022/08/04 01:53:42;;;;;;;4.68;1.25;;;21.40;99.90;;;;;;5045200;28;20079;-90
2022/08/04 01:56:09;;;;;;;7.28;1.98;;;21.40;99.90;;;;;;5042349;28;20109;-89
2022/08/04 01:58:37;;;;;;;4.85;1.15;;;21.40;99.90;;;;;;5054957;28;20032;-89
2022/08/04 02:01:10;;;;;;;4.03;1.13;;;21.40;99.90;;;;;;5040973;28;20499;-90
2022/08/04 02:03:40;;;;;;;3.83;1.25;;;21.50;99.90;;;;;;5040341;28;20068;-89
2022/08/04 02:06:20;;;;;;;8.07;1.08;;;21.50;99.90;;;;;;5045076;28;20524;-90
2022/08/04 02:09:05;;;;;;;5.63;1.63;;;21.50;99.90;;;;;;5051157;28;20029;-90
2022/08/04 02:11:30;;;;;;;2.67;1.00;;;21.60;99.90;;;;;;5051410;28;20017;-89
2022/08/04 02:14:12;;;;;;;3.15;0.88;;;21.60;99.90;;;;;;5055018;28;20427;-89
2022/08/04 02:16:51;;;;;;;7.55;0.85;;;21.60;99.90;;;;;;5054549;28;20033;-89
2022/08/04 02:19:40;;;;;;;7.90;1.38;;;21.60;99.90;;;;;;5051827;28;20036;-90
2022/08/04 02:22:08;;;;;;;4.50;1.02;;;21.70;99.90;;;;;;5053968;28;20040;-89
2022/08/04 02:24:44;;;;;;;5.55;0.90;;;21.70;99.90;;;;;;5051517;28;20024;-89
2022/08/04 02:27:13;;;;;;;5.45;1.13;;;21.70;99.90;;;;;;5054781;28;20025;-91
2022/08/04 02:29:52;;;;;;;4.85;0.90;;;21.70;99.90;;;;;;5052194;28;20033;-89
2022/08/04 02:32:26;;;;;;;7.53;1.52;;;21.70;99.90;;;;;;5050105;28;20371;-89
2022/08/04 02:35:25;;;;;;;4.68;1.08;;;21.70;99.90;;;;;;5044962;28;20083;-90
2022/08/04 02:38:03;;;;;;;7.55;1.13;;;21.70;99.90;;;;;;5045339;28;20029;-89
2022/08/04 02:40:29;;;;;;;8.32;1.30;;;21.70;99.90;;;;;;5051448;28;20039;-91
2022/08/04 02:42:58;;;;;;;6.97;0.82;;;21.80;99.90;;;;;;5055492;28;20033;-89
2022/08/04 02:45:24;;;;;;;6.63;1.30;;;21.80;99.90;;;;;;5062190;28;20021;-89
2022/08/04 02:47:54;;;;;;;6.20;1.00;;;21.80;99.90;;;;;;5048874;28;20067;-91
2022/08/04 02:50:20;;;;;;;9.45;0.98;;;21.80;99.90;;;;;;5053523;28;20468;-91
2022/08/04 02:52:49;;;;;;;4.30;1.00;;;21.70;99.90;;;;;;5053799;28;20033;-89
2022/08/04 02:55:17;;;;;;;6.82;1.30;;;21.70;99.90;;;;;;5051904;28;20036;-90
2022/08/04 02:57:46;;;;;;;5.95;1.13;;;21.70;99.90;;;;;;5053088;28;20032;-90
2022/08/04 03:00:13;;;;;;;6.00;1.00;;;21.60;99.90;;;;;;5053465;28;20029;-90
2022/08/04 03:03:11;;;;;;;9.40;1.25;;;21.60;99.90;;;;;;5047095;28;20082;-90
2022/08/04 03:06:23;;;;;;;5.40;1.00;;;21.60;99.90;;;;;;5056319;28;20021;-90
2022/08/04 03:09:17;;;;;;;2.28;0.90;;;21.50;99.90;;;;;;5027864;28;20040;-90
2022/08/04 03:12:03;;;;;;;5.90;1.45;;;21.40;99.90;;;;;;5048684;28;20051;-90
2022/08/04 03:15:06;;;;;;;3.92;1.25;;;21.30;99.90;;;;;;5045562;28;20374;-88
2022/08/04 03:17:54;;;;;;;5.80;1.63;;;21.20;99.90;;;;;;5049542;28;20022;-88
2022/08/04 03:20:25;;;;;;;14.15;2.85;;;21.10;99.90;;;;;;5052031;28;20648;-88
2022/08/04 03:23:39;;;;;;;6.87;1.10;;;21.00;99.90;;;;;;5064562;28;20037;-88
2022/08/04 03:26:35;;;;;;;5.40;1.27;;;20.90;99.90;;;;;;5014647;28;20049;-88
2022/08/04 03:29:32;;;;;;;7.88;1.45;;;20.70;99.90;;;;;;5042684;28;20059;-89
2022/08/04 03:32:31;;;;;;;5.40;1.85;;;20.70;99.90;;;;;;5050340;28;20033;-88
2022/08/04 03:35:29;;;;;;;6.47;1.92;;;20.60;99.90;;;;;;5050456;28;20037;-88
2022/08/04 03:38:44;;;;;;;6.30;1.52;;;20.50;99.90;;;;;;5045630;28;20040;-88
2022/08/04 03:41:44;;;;;;;5.95;1.27;;;20.40;99.90;;;;;;5068009;28;20036;-88
2022/08/04 03:44:43;;;;;;;7.35;1.50;;;20.30;99.90;;;;;;5058045;28;20059;-88
2022/08/04 03:47:30;;;;;;;4.05;1.60;;;20.30;99.90;;;;;;5051194;28;20045;-88
2022/08/04 03:50:11;;;;;;;7.35;1.73;;;20.20;99.90;;;;;;5039411;28;20030;-88
2022/08/04 03:53:21;;;;;;;6.35;1.80;;;20.20;99.90;;;;;;5042218;28;20037;-89
2022/08/04 03:56:24;;;;;;;5.07;1.88;;;20.10;99.90;;;;;;5052797;28;20515;-88
2022/08/04 03:59:26;;;;;;;6.40;1.98;;;20.10;99.90;;;;;;5047697;28;20035;-90
2022/08/04 04:02:01;;;;;;;5.97;1.35;;;20.10;99.90;;;;;;5053257;28;20028;-89
2022/08/04 04:05:00;;;;;;;6.53;1.38;;;20.00;99.90;;;;;;5050251;28;20044;-89
2022/08/04 04:07:37;;;;;;;6.78;1.80;;;19.90;99.90;;;;;;5035308;28;20052;-89
2022/08/04 04:10:07;;;;;;;8.20;1.90;;;19.90;99.90;;;;;;5043080;28;20519;-88
2022/08/04 04:12:45;;;;;;;6.68;2.67;;;19.80;99.90;;;;;;5051425;28;20477;-88
2022/08/04 04:15:30;;;;;;;10.73;2.67;;;19.80;99.90;;;;;;5049987;28;20090;-88
2022/08/04 04:18:18;;;;;;;7.32;2.75;;;19.80;99.90;;;;;;5047798;28;20060;-89
2022/08/04 04:21:01;;;;;;;7.35;3.50;;;19.80;99.90;;;;;;5039615;28;20053;-88
2022/08/04 04:24:00;;;;;;;9.50;3.00;;;19.80;99.90;;;;;;5051920;28;20065;-88
2022/08/04 04:27:07;;;;;;;13.02;3.03;;;19.80;99.90;;;;;;5050773;28;20048;-89
2022/08/04 04:29:41;;;;;;;9.05;3.10;;;19.80;99.90;;;;;;4996611;28;20030;-88
2022/08/04 04:32:44;;;;;;;7.80;2.97;;;19.80;99.90;;;;;;5003021;28;20034;-88
2022/08/04 04:35:30;;;;;;;8.38;3.10;;;19.80;99.90;;;;;;5046458;28;20037;-88
2022/08/04 04:38:13;;;;;;;6.05;2.92;;;19.80;99.90;;;;;;5053742;28;20028;-88
2022/08/04 04:40:59;;;;;;;12.00;4.30;;;19.80;99.90;;;;;;5041698;28;20063;-88
2022/08/04 04:43:31;;;;;;;10.40;3.40;;;19.80;99.90;;;;;;5049988;28;20043;-88
2022/08/04 04:46:14;;;;;;;12.27;3.85;;;19.80;99.90;;;;;;5057060;28;20108;-88
2022/08/04 04:48:57;;;;;;;8.15;3.72;;;19.90;99.90;;;;;;5049865;28;20029;-89
2022/08/04 04:51:32;;;;;;;12.48;3.72;;;20.00;99.90;;;;;;5037131;28;20025;-88
2022/08/04 04:54:10;;;;;;;7.28;3.28;;;20.00;99.90;;;;;;5054685;28;20562;-89
2022/08/04 04:56:51;;;;;;;8.05;3.83;;;20.10;99.90;;;;;;5066189;28;20025;-89
2022/08/04 04:59:21;;;;;;;10.90;4.95;;;20.10;99.90;;;;;;5048587;28;20040;-89
2022/08/04 05:02:26;;;;;;;9.60;4.30;;;20.20;99.90;;;;;;5037985;28;20033;-89
2022/08/04 05:05:13;;;;;;;9.60;4.60;;;20.30;99.90;;;;;;5045095;28;20513;-89
2022/08/04 05:08:01;;;;;;;11.35;4.00;;;20.30;99.90;;;;;;5050396;28;20039;-88
2022/08/04 05:10:29;;;;;;;9.43;4.20;;;20.40;99.90;;;;;;5042870;28;20029;-88
2022/08/04 05:13:22;;;;;;;9.02;3.88;;;20.40;99.90;;;;;;5053798;28;20496;-88
2022/08/04 05:15:52;;;;;;;10.13;3.80;;;20.60;99.90;;;;;;5034224;28;20071;-90
2022/08/04 05:18:25;;;;;;;8.63;4.20;;;20.60;99.90;;;;;;5042196;28;20024;-85
2022/08/04 05:20:56;;;;;;;10.90;4.70;;;20.70;99.90;;;;;;5048994;28;20029;-83
2022/08/04 05:23:28;;;;;;;13.20;4.82;;;20.80;99.90;;;;;;5046695;28;20041;-84
2022/08/04 05:26:01;;;;;;;11.88;3.85;;;20.90;99.90;;;;;;5054114;28;20329;-85
2022/08/04 05:28:33;;;;;;;8.68;4.32;;;21.10;99.90;;;;;;5041400;28;20065;-85
2022/08/04 05:31:11;;;;;;;14.07;4.05;;;21.20;99.90;;;;;;5046294;28;20083;-85
2022/08/04 05:33:49;;;;;;;11.02;4.50;;;21.30;99.90;;;;;;5039811;28;20041;-84
2022/08/04 05:36:18;;;;;;;10.50;4.07;;;21.50;99.90;;;;;;5043295;28;20108;-85
2022/08/04 05:38:48;;;;;;;8.35;4.45;;;21.60;99.90;;;;;;5048933;28;20025;-84
2022/08/04 05:41:14;;;;;;;7.53;4.30;;;21.70;99.90;;;;;;5040332;28;20160;-85
2022/08/04 05:43:43;;;;;;;6.80;3.10;;;21.90;99.90;;;;;;5037085;28;20044;-84
2022/08/04 05:46:10;;;;;;;8.18;3.97;;;22.00;99.90;;;;;;5048257;28;20055;-85
2022/08/04 05:48:36;;;;;;;7.30;3.10;;;22.00;99.90;;;;;;5049834;28;20516;-84
2022/08/04 05:51:04;;;;;;;8.18;3.47;;;22.10;99.90;;;;;;5050679;28;20078;-85
2022/08/04 05:53:31;;;;;;;9.05;3.30;;;22.10;99.90;;;;;;5042547;28;20049;-85
2022/08/04 05:55:58;;;;;;;5.57;2.97;;;22.20;99.90;;;;;;5047052;28;20123;-84
2022/08/04 05:58:25;;;;;;;9.30;3.75;;;22.30;99.90;;;;;;5052792;28;20075;-87
2022/08/04 06:00:52;;;;;;;10.52;3.90;;;22.40;99.90;;;;;;5050000;28;20608;-88
2022/08/04 06:03:18;;;;;;;7.80;2.78;;;22.50;99.90;;;;;;5047415;28;20143;-87
2022/08/04 06:05:45;;;;;;;7.78;3.47;;;22.60;99.90;;;;;;5035009;28;20021;-87
2022/08/04 06:08:11;;;;;;;10.95;3.20;;;22.70;99.90;;;;;;5047586;28;20033;-87
2022/08/04 06:10:39;;;;;;;9.77;4.18;;;22.80;99.90;;;;;;5046161;28;20036;-87
2022/08/04 06:13:11;;;;;;;8.00;3.60;;;22.90;99.90;;;;;;5043341;28;20052;-86
2022/08/04 06:15:41;;;;;;;8.18;4.03;;;23.00;99.90;;;;;;5048821;28;20070;-87
2022/08/04 06:18:09;;;;;;;7.10;4.03;;;23.20;99.90;;;;;;5052742;28;20048;-87
2022/08/04 06:20:37;;;;;;;10.52;4.75;;;23.30;99.90;;;;;;5052032;28;20024;-87
2022/08/04 06:23:08;;;;;;;8.35;5.00;;;23.40;99.90;;;;;;5052660;28;20037;-87
2022/08/04 06:25:40;;;;;;;6.80;4.07;;;23.50;99.90;;;;;;5051020;28;20024;-87
2022/08/04 06:28:06;;;;;;;11.15;4.30;;;23.60;99.90;;;;;;5040224;28;20026;-88
2022/08/04 06:30:35;;;;;;;7.97;4.18;;;23.70;99.90;;;;;;5052509;28;20029;-87
2022/08/04 06:33:12;;;;;;;9.57;3.67;;;23.80;99.90;;;;;;5051051;28;20048;-87
2022/08/04 06:35:38;;;;;;;9.32;4.38;;;24.00;99.90;;;;;;5037900;28;20116;-87
2022/08/04 06:38:04;;;;;;;7.47;4.07;;;24.10;99.90;;;;;;5032455;28;20124;-87
2022/08/04 06:40:30;;;;;;;6.53;4.00;;;24.20;99.90;;;;;;5051228;28;20087;-87
2022/08/04 06:42:56;;;;;;;10.75;4.53;;;24.30;99.90;;;;;;5050915;28;20048;-87
2022/08/04 06:45:23;;;;;;;7.30;4.05;;;24.40;99.90;;;;;;5048171;28;20649;-86
2022/08/04 06:47:49;;;;;;;8.95;4.18;;;24.50;99.90;;;;;;5051717;28;20048;-87
2022/08/04 06:50:15;;;;;;;10.63;4.88;;;24.60;99.90;;;;;;5037210;28;20040;-88
2022/08/04 06:52:44;;;;;;;8.95;4.90;;;24.70;99.90;;;;;;5049624;28;20037;-88
2022/08/04 06:55:10;;;;;;;9.00;4.28;;;24.80;99.90;;;;;;5040641;28;20091;-88
2022/08/04 06:57:36;;;;;;;11.73;4.80;;;24.90;99.90;;;;;;5032391;28;20029;-88
2022/08/04 07:00:04;;;;;;;8.45;4.65;;;24.90;99.90;;;;;;5039835;28;20025;-88
2022/08/04 07:02:37;;;;;;;8.85;4.88;;;25.00;99.90;;;;;;5049700;28;20029;-89
2022/08/04 07:05:05;;;;;;;9.57;4.20;;;25.20;99.90;;;;;;5047897;28;20029;-88
2022/08/04 07:07:31;;;;;;;11.10;4.55;;;25.40;99.90;;;;;;5031945;28;20026;-88
2022/08/04 07:09:57;;;;;;;11.13;4.45;;;25.50;99.90;;;;;;5046466;28;20056;-88
2022/08/04 07:12:24;;;;;;;8.38;4.15;;;25.80;99.90;;;;;;5049002;28;20021;-87
2022/08/04 07:14:50;;;;;;;9.93;3.70;;;26.10;99.90;;;;;;5049751;28;20088;-87
2022/08/04 07:17:17;;;;;;;9.57;3.10;;;26.30;99.90;;;;;;5051718;28;20025;-87
2022/08/04 07:19:43;;;;;;;9.00;3.00;;;26.50;99.90;;;;;;5050972;28;20032;-87
2022/08/04 07:22:10;;;;;;;8.48;2.83;;;26.80;99.90;;;;;;5049552;28;20171;-87
2022/08/04 07:24:37;;;;;;;10.77;2.50;;;27.00;99.90;;;;;;5049901;28;20041;-87
2022/08/04 07:27:06;;;;;;;7.13;2.15;;;27.20;99.30;;;;;;5038380;28;20033;-87
2022/08/04 07:29:33;;;;;;;8.45;1.98;;;27.40;98.50;;;;;;5032518;28;20036;-87
2022/08/04 07:32:04;;;;;;;12.45;2.10;;;27.50;97.70;;;;;;5045513;28;20056;-87
2022/08/04 07:34:34;;;;;;;11.38;2.78;;;27.70;96.70;;;;;;5051652;28;20025;-87
2022/08/04 07:37:00;;;;;;;9.40;2.60;;;27.70;96.10;;;;;;5033694;28;20132;-87
2022/08/04 07:39:30;;;;;;;8.82;3.75;;;27.70;95.80;;;;;;5048096;28;20022;-86
2022/08/04 07:42:00;;;;;;;9.48;4.25;;;27.60;96.20;;;;;;5046810;28;20037;-87
2022/08/04 07:44:26;;;;;;;10.95;6.30;;;27.50;96.50;;;;;;5044549;28;20118;-87
2022/08/04 07:46:52;;;;;;;13.15;6.90;;;27.40;96.90;;;;;;5040297;28;20496;-88
2022/08/04 07:49:19;;;;;;;12.98;7.10;;;27.20;97.70;;;;;;5041879;28;20057;-88
2022/08/04 07:51:45;;;;;;;12.07;6.70;;;27.10;98.20;;;;;;5044588;28;20132;-88
2022/08/04 07:54:12;;;;;;;10.25;5.78;;;27.10;98.30;;;;;;5051666;28;20409;-88
2022/08/04 07:56:40;;;;;;;12.93;6.32;;;27.20;98.60;;;;;;5051043;28;20112;-88
2022/08/04 07:59:06;;;;;;;11.07;5.28;;;27.20;98.00;;;;;;5053221;28;20025;-87
2022/08/04 08:01:35;;;;;;;8.20;4.70;;;27.20;97.80;;;;;;5039406;28;20049;-86
2022/08/04 08:04:01;;;;;;;9.68;5.80;;;27.10;97.50;;;;;;5048674;28;20037;-87
2022/08/04 08:06:28;;;;;;;8.63;4.40;;;27.20;97.60;;;;;;5051584;28;20128;-86
2022/08/04 08:08:55;;;;;;;12.93;5.20;;;27.30;97.10;;;;;;5037870;28;20090;-87
2022/08/04 08:11:20;;;;;;;8.73;5.22;;;27.40;96.90;;;;;;5051065;28;20025;-87
2022/08/04 08:13:46;;;;;;;10.55;4.78;;;27.30;96.50;;;;;;5035862;28;20489;-86
2022/08/04 08:16:12;;;;;;;11.32;5.07;;;27.40;96.30;;;;;;5047690;28;20029;-86
2022/08/04 08:18:38;;;;;;;10.65;4.72;;;27.50;96.20;;;;;;5045587;28;20400;-86
2022/08/04 08:21:04;;;;;;;9.20;4.32;;;27.50;96.20;;;;;;5046304;28;20028;-87
2022/08/04 08:23:31;;;;;;;7.13;3.55;;;27.60;95.80;;;;;;5055074;28;20095;-86
2022/08/04 08:25:58;;;;;;;10.20;3.92;;;27.60;95.80;;;;;;5046504;28;20067;-87
2022/08/04 08:28:24;;;;;;;9.85;4.22;;;27.70;95.60;;;;;;5054529;28;20099;-87
2022/08/04 08:30:49;;;;;;;9.55;3.85;;;27.70;95.30;;;;;;5053309;28;20025;-87
2022/08/04 08:33:15;;;;;;;8.00;3.85;;;27.80;95.40;;;;;;5048775;28;20370;-87
2022/08/04 08:35:59;;;;;;;8.98;3.60;;;27.90;95.60;;;;;;5038711;28;20101;-87
2022/08/04 08:39:04;;;;;;;9.82;3.28;;;28.00;95.20;;;;;;5051414;28;20022;-87
2022/08/04 08:41:49;;;;;;;5.10;2.38;;;28.10;94.90;;;;;;4988486;28;20048;-88
2022/08/04 08:44:17;;;;;;;8.15;2.72;;;28.10;94.60;;;;;;5049346;28;20037;-87
2022/08/04 08:47:10;;;;;;;5.68;2.53;;;28.10;94.50;;;;;;5050254;28;20049;-87
2022/08/04 08:50:06;;;;;;;4.68;1.80;;;28.10;94.30;;;;;;5039389;28;20068;-87
2022/08/04 08:53:21;;;;;;;3.60;0.82;;;28.00;94.10;;;;;;5052802;28;20025;-88
2022/08/04 08:56:12;;;;;;;6.28;1.05;;;27.90;93.90;;;;;;5052986;28;20045;-87
2022/08/04 08:59:13;;;;;;;7.63;1.20;;;27.90;93.60;;;;;;5053528;28;20032;-88
2022/08/04 09:01:50;;;;;;;6.80;0.70;;;27.90;93.40;;;;;;5029164;28;20074;-88
2022/08/04 09:04:28;;;;;;;18.35;1.00;;;28.00;93.10;;;;;;5052949;28;20041;-87
2022/08/04 09:07:12;;;;;;;6.00;0.60;;;28.10;92.60;;;;;;5052940;28;20033;-87
2022/08/04 09:09:56;;;;;;;7.40;0.52;;;28.20;92.10;;;;;;5053282;28;20040;-88
2022/08/04 09:12:49;;;;;;;5.35;0.68;;;28.10;91.50;;;;;;5053593;28;20033;-86
2022/08/04 09:15:33;;;;;;;3.95;0.50;;;28.10;91.50;;;;;;5049340;28;20036;-87
2022/08/04 09:18:16;;;;;;;2.75;0.45;;;28.20;91.30;;;;;;5045312;28;20025;-87
2022/08/04 09:20:48;;;;;;;3.80;0.60;;;28.30;90.90;;;;;;5052157;28;20032;-86
2022/08/04 09:23:40;;;;;;;2.80;0.50;;;28.50;90.20;;;;;;5052147;28;20087;-87
2022/08/04 09:26:26;;;;;;;2.85;0.50;;;28.50;89.60;;;;;;5040174;28;20030;-87
2022/08/04 09:29:00;;;;;;;2.92;0.60;;;28.50;88.70;;;;;;5039242;28;20033;-87
2022/08/04 09:31:40;;;;;;;3.15;0.75;;;28.60;88.90;;;;;;5049672;28;20037;-87
2022/08/04 09:34:08;;;;;;;6.45;0.60;;;28.70;88.50;;;;;;5050795;28;20067;-87
2022/08/04 09:36:40;;;;;;;2.97;0.73;;;28.90;88.40;;;;;;5051719;28;20031;-86
2022/08/04 09:39:31;;;;;;;3.47;0.60;;;29.00;88.30;;;;;;5051955;28;20630;-86
2022/08/04 09:42:15;;;;;;;4.70;0.60;;;29.30;87.60;;;;;;5033442;28;20029;-86
2022/08/04 09:45:37;;;;;;;4.40;0.73;;;29.50;87.80;;;;;;5062703;28;20291;-85
2022/08/04 09:48:34;;;;;;;4.40;0.70;;;29.60;87.30;;;;;;4995579;28;20153;-86
2022/08/04 09:51:04;;;;;;;12.32;0.73;;;29.60;86.50;;;;;;5057755;28;20033;-87
2022/08/04 09:53:54;;;;;;;5.47;1.13;;;29.50;86.90;;;;;;5048172;28;20469;-87
2022/08/04 09:56:41;;;;;;;4.85;0.70;;;29.40;85.60;;;;;;5033155;28;20021;-88
2022/08/04 09:59:25;;;;;;;7.60;0.50;;;29.30;85.40;;;;;;5033324;28;20033;-87
2022/08/04 10:01:56;;;;;;;7.20;0.57;;;29.20;85.00;;;;;;5048794;28;20033;-87
2022/08/04 10:04:26;;;;;;;9.93;0.50;;;29.20;84.40;;;;;;5045379;28;20029;-87
2022/08/04 10:07:33;;;;;;;5.93;0.55;;;29.00;83.80;;;;;;5035380;28;20292;-88
2022/08/04 10:10:27;;;;;;;9.40;0.60;;;28.90;83.50;;;;;;5024594;28;20033;-87
2022/08/04 10:13:05;;;;;;;3.17;0.60;;;28.70;84.20;;;;;;5053639;28;20104;-87
2022/08/04 10:15:53;;;;;;;3.83;0.70;;;28.50;85.00;;;;;;5050086;28;20026;-87
2022/08/04 10:18:44;;;;;;;3.58;0.50;;;28.40;85.90;;;;;;5035723;28;20025;-88
2022/08/04 10:21:25;;;;;;;7.38;0.80;;;28.30;86.60;;;;;;5067151;28;20036;-88
2022/08/04 10:24:10;;;;;;;5.50;0.70;;;28.10;87.10;;;;;;5051557;28;20041;-88
2022/08/04 10:26:50;;;;;;;6.95;0.60;;;27.80;87.80;;;;;;5052104;28;20329;-87
2022/08/04 10:29:26;;;;;;;4.30;0.50;;;27.70;88.80;;;;;;5051407;28;20025;-89
2022/08/04 10:32:10;;;;;;;6.70;0.52;;;27.70;89.40;;;;;;5040771;28;20037;-89
2022/08/04 10:35:07;;;;;;;5.85;0.68;;;27.50;90.10;;;;;;5038071;28;20036;-88
2022/08/04 10:38:12;;;;;;;33.95;1.85;;;27.30;90.60;;;;;;5041679;28;20477;-88
2022/08/04 10:40:56;;;;;;;8.35;1.00;;;27.00;91.20;;;;;;5034556;28;20044;-88
2022/08/04 10:43:58;;;;;;;4.80;0.68;;;26.80;92.20;;;;;;5052247;28;20033;-88
2022/08/04 10:46:33;;;;;;;4.30;0.83;;;26.50;92.90;;;;;;5051818;28;20045;-88
2022/08/04 10:49:06;;;;;;;5.82;1.45;;;26.20;94.00;;;;;;5045961;28;20033;-88
2022/08/04 10:52:12;;;;;;;5.80;1.20;;;26.00;95.00;;;;;;5040765;28;20052;-88
2022/08/04 10:55:02;;;;;;;9.05;1.00;;;25.60;95.90;;;;;;5052232;28;20069;-86
2022/08/04 10:57:43;;;;;;;7.68;1.30;;;25.20;97.20;;;;;;5051688;28;20029;-86
2022/08/04 11:00:23;;;;;;;6.20;1.80;;;25.00;98.70;;;;;;5049133;28;20022;-85
2022/08/04 11:03:09;;;;;;;7.80;1.83;;;24.80;99.60;;;;;;5048240;28;20039;-85
2022/08/04 11:05:53;;;;;;;6.93;2.20;;;24.70;99.90;;;;;;5052640;28;20112;-85
2022/08/04 11:08:26;;;;;;;6.68;1.73;;;24.50;99.90;;;;;;5051288;28;20056;-85
2022/08/04 11:11:18;;;;;;;7.18;1.73;;;24.40;99.90;;;;;;5043983;28;20115;-85
2022/08/04 11:14:03;;;;;;;9.25;2.05;;;24.30;99.90;;;;;;5031204;28;20070;-86
2022/08/04 11:16:38;;;;;;;9.00;2.38;;;24.20;99.90;;;;;;5039623;28;20024;-86
2022/08/04 11:19:32;;;;;;;10.65;2.63;;;24.10;99.90;;;;;;5052396;28;20112;-85
2022/08/04 11:22:26;;;;;;;7.60;2.38;;;24.10;99.90;;;;;;5066867;28;20056;-84
2022/08/04 11:25:02;;;;;;;9.07;2.30;;;24.10;99.90;;;;;;5046601;28;20037;-86
2022/08/04 11:27:38;;;;;;;7.88;2.40;;;24.10;99.90;;;;;;5031372;28;20054;-85
2022/08/04 11:30:07;;;;;;;8.88;2.33;;;24.20;99.90;;;;;;5040060;28;20059;-86
2022/08/04 11:33:08;;;;;;;8.43;2.75;;;24.30;99.90;;;;;;5050860;28;20043;-85
2022/08/04 11:35:39;;;;;;;8.85;2.70;;;24.30;99.90;;;;;;5051980;28;20112;-85
2022/08/04 11:38:18;;;;;;;5.90;2.47;;;24.30;99.90;;;;;;5052241;28;20112;-85
2022/08/04 11:40:48;;;;;;;10.48;2.72;;;24.30;99.90;;;;;;5054933;28;20029;-85
2022/08/04 11:43:51;;;;;;;9.45;2.47;;;24.20;99.90;;;;;;5055605;28;20041;-86
2022/08/04 11:46:38;;;;;;;;;;;24.30;99.90;;;;;;5048126;28;20519;-86
2022/08/04 11:49:28;;;;;;;5.28;1.83;;;24.40;99.90;;;;;;5051843;28;19913;-85
2022/08/04 11:51:57;;;;;;;7.40;2.42;;;24.50;99.90;;;;;;5040254;28;20037;-86
2022/08/04 11:54:22;;;;;;;7.05;2.22;;;24.60;99.90;;;;;;5055130;28;20079;-85
2022/08/04 11:56:48;;;;;;;5.32;2.97;;;24.60;99.90;;;;;;5053524;28;20024;-86
2022/08/04 11:59:14;;;;;;;7.93;2.97;;;24.60;99.90;;;;;;5054479;28;20025;-86
2022/08/04 12:02:01;;;;;;;5.53;3.17;;;24.60;99.90;;;;;;5054023;28;20389;-86
2022/08/04 12:04:50;;;;;;;8.68;3.25;;;24.50;99.90;;;;;;5046626;28;20500;-86
2022/08/04 12:07:21;;;;;;;3.78;2.72;;;24.50;99.90;;;;;;5041098;28;20387;-85
2022/08/04 12:10:14;;;;;;;8.98;3.30;;;24.60;99.90;;;;;;5053055;28;20024;-86
2022/08/04 12:13:12;;;;;;;5.68;3.30;;;24.70;99.90;;;;;;5053560;28;20049;-86
2022/08/04 12:16:01;;;;;;;6.47;2.90;;;24.80;99.90;;;;;;5050539;28;20023;-85
2022/08/04 12:18:40;;;;;;;5.28;3.58;;;25.20;99.90;;;;;;5054905;28;20108;-85
2022/08/04 12:21:32;;;;;;;13.32;3.83;;;25.40;99.90;;;;;;5053471;28;20025;-86
2022/08/04 12:24:04;;;;;;;8.73;3.40;;;25.50;99.90;;;;;;5053187;28;20100;-85
2022/08/04 12:26:39;;;;;;;7.25;3.42;;;25.80;99.90;;;;;;5054277;28;20021;-85
2022/08/04 12:29:06;;;;;;;8.15;3.33;;;25.90;99.90;;;;;;5058786;28;20044;-84
2022/08/04 12:31:47;;;;;;;7.93;2.90;;;26.00;99.90;;;;;;5062835;28;20021;-84
2022/08/04 12:34:32;;;;;;;10.03;3.67;;;26.10;99.90;;;;;;5052485;28;20054;-84
2022/08/04 12:37:05;;;;;;;8.40;3.90;;;26.20;99.90;;;;;;5063898;28;20286;-84
2022/08/04 12:39:31;;;;;;;6.13;3.35;;;26.30;99.90;;;;;;5058911;28;20492;-86
2022/08/04 12:42:14;;;;;;;7.32;3.47;;;26.40;99.90;;;;;;5033174;28;20112;-86
2022/08/04 12:44:41;;;;;;;6.18;2.83;;;26.40;99.90;;;;;;5033098;28;20037;-83
2022/08/04 12:47:10;;;;;;;3.88;2.03;;;26.30;99.90;;;;;;5046599;28;20048;-84
2022/08/04 12:49:40;;;;;;;4.28;1.45;;;26.40;99.90;;;;;;5048632;28;20037;-86
2022/08/04 12:52:07;;;;;;;8.23;1.13;;;26.40;99.90;;;;;;5040228;28;20028;-86
2022/08/04 12:54:36;;;;;;;7.03;1.38;;;26.30;99.90;;;;;;5036044;28;20022;-85
2022/08/04 12:57:04;;;;;;;2.38;0.90;;;26.30;99.90;;;;;;5035718;28;20048;-86
2022/08/04 12:59:37;;;;;;;4.00;1.33;;;26.30;99.90;;;;;;5043477;28;20068;-86
2022/08/04 13:02:05;;;;;;;5.70;1.48;;;26.30;99.90;;;;;;5045656;28;20029;-87
2022/08/04 13:04:33;;;;;;;5.55;0.90;;;26.40;99.90;;;;;;5040121;28;20037;-87
2022/08/04 13:07:12;;;;;;;4.35;0.90;;;26.50;99.90;;;;;;5036911;28;20036;-85
2022/08/04 13:09:39;;;;;;;4.45;1.15;;;26.60;99.90;;;;;;5035268;28;20056;-87
2022/08/04 13:12:11;;;;;;;5.03;1.73;;;26.70;99.90;;;;;;5043372;28;20032;-88
2022/08/04 13:14:42;;;;;;;3.95;0.80;;;26.90;99.90;;;;;;5062524;28;20052;-86
2022/08/04 13:17:07;;;;;;;5.32;0.90;;;27.10;99.90;;;;;;5034394;28;20036;-87
2022/08/04 13:19:34;;;;;;;5.50;1.00;;;27.20;99.90;;;;;;5053123;28;20029;-88
2022/08/04 13:22:00;;;;;;;4.18;1.17;;;27.40;99.90;;;;;;5037380;28;20112;-87
2022/08/04 13:24:27;;;;;;;6.00;1.63;;;27.40;99.90;;;;;;5034120;28;20123;-87
2022/08/04 13:27:07;;;;;;;3.92;1.45;;;27.50;99.90;;;;;;5039558;28;20052;-87
2022/08/04 13:29:39;;;;;;;8.00;1.33;;;27.60;99.90;;;;;;5040547;28;20032;-87
2022/08/04 13:32:05;;;;;;;;;;;27.60;99.60;;;;;;5044809;28;20477;-87
2022/08/04 13:34:33;;;;;;;3.65;0.90;;;27.60;99.90;;;;;;5047478;28;19909;-87
2022/08/04 13:37:00;;;;;;;5.47;1.73;;;27.90;99.90;;;;;;5046016;28;20427;-88
2022/08/04 13:39:26;;;;;;;4.80;1.00;;;28.10;99.60;;;;;;5053956;28;20025;-87